KGVL/GVL METAR and TAF weather

Enter ICAO airport designator
Station Type Date Time Source
KGVL METAR 2019/04/22 17:53 UTC NOAA

KGVL 221753Z AUTO 33003KT 10SM CLR 24/06 A3019 RMK AO2 SLP214 T02390056 10239 20100 58015


Station Type Date Time Source
KGVL Decoded METAR 2019/04/22 17:53 UTC NOAA

GILMER MEMORIAL AIRPORT, GA, United States (KGVL) 34-16N 83-50W 386M
Apr 22, 2019 - 01:53 PM EDT / 2019.04.22 1753 UTC
Wind: from the NNW (330 degrees) at 3 MPH (3 KT):0
Visibility: 10 mile(s):0
Sky conditions: clear
Temperature: 75.0 F (23.9 C)
Dew Point: 42.1 F (5.6 C)
Relative Humidity: 30%
Pressure (altimeter): 30.19 in. Hg (1022 hPa)
Pressure tendency: 0.04 inches (1.5 hPa) lower than three hours ago
ob: KGVL 221753Z AUTO 33003KT 10SM CLR 24/06 A3019 RMK AO2 SLP214 T02390056 10239 20100 58015
cycle: 18

Station Type Date Time Source
KGVL TAF UTC NOAA

Error!

Example: see airport list